Time;durP1;ratioP1;P1;durP2;ratioP2;P2;SDS_P1;SDS_P2;PMS_P1;PMS_P2;Temp;Humidity;BMP_temperature;BMP_pressure;BME280_temperature;BME280_humidity;BME280_pressure;Samples;Min_cycle;Max_cycle;Signal;HPM_P1;HPM_P2
2023/05/04 00:01:25;;;;;;;6.95;3.75;;;6.00;99.90;;;;;;5115659;28;20411;-83
2023/05/04 00:03:53;;;;;;;10.07;4.38;;;6.30;99.90;;;;;;5148946;28;20036;-83
2023/05/04 00:06:20;;;;;;;10.68;4.50;;;5.80;99.90;;;;;;5115720;28;20043;-83
2023/05/04 00:08:46;;;;;;;9.10;4.38;;;5.80;99.90;;;;;;5131975;28;20035;-83
2023/05/04 00:11:13;;;;;;;13.52;4.43;;;5.80;99.90;;;;;;5115215;28;20051;-83
2023/05/04 00:13:40;;;;;;;8.32;4.20;;;5.70;99.90;;;;;;5115531;28;20036;-83
2023/05/04 00:16:07;;;;;;;8.00;4.00;;;5.70;99.90;;;;;;5122745;28;20067;-83
2023/05/04 00:18:33;;;;;;;10.65;4.47;;;5.70;99.90;;;;;;5149160;28;20047;-83
2023/05/04 00:21:00;;;;;;;7.20;4.15;;;5.60;99.90;;;;;;5131676;28;20184;-83
2023/05/04 00:23:27;;;;;;;8.55;4.03;;;5.70;99.90;;;;;;5131871;28;20050;-83
2023/05/04 00:25:54;;;;;;;10.45;4.22;;;5.60;99.90;;;;;;5131422;28;20821;-83
2023/05/04 00:28:21;;;;;;;9.00;3.97;;;5.70;99.90;;;;;;5131629;28;20569;-82
2023/05/04 00:30:47;;;;;;;6.97;3.83;;;5.60;99.90;;;;;;5131112;28;20096;-81
2023/05/04 00:33:14;;;;;;;7.47;4.20;;;5.60;99.90;;;;;;5131839;28;20082;-81
2023/05/04 00:35:41;;;;;;;9.60;4.20;;;5.60;99.90;;;;;;5131321;28;20502;-80
2023/05/04 00:38:07;;;;;;;10.85;4.60;;;5.60;99.90;;;;;;5131410;28;20042;-80
2023/05/04 00:40:34;;;;;;;10.55;4.50;;;5.60;99.90;;;;;;5131319;28;20055;-81
2023/05/04 00:43:01;;;;;;;6.47;4.03;;;5.50;99.90;;;;;;5114574;28;20138;-81
2023/05/04 00:45:28;;;;;;;8.50;4.30;;;5.50;99.90;;;;;;5114515;28;20047;-81
2023/05/04 00:47:55;;;;;;;10.95;4.38;;;5.50;99.90;;;;;;5131133;28;20040;-81
2023/05/04 00:50:23;;;;;;;10.52;4.38;;;5.50;99.90;;;;;;5104547;28;20035;-81
2023/05/04 00:52:50;;;;;;;8.23;3.80;;;5.50;99.90;;;;;;5113960;28;20071;-80
2023/05/04 00:55:17;;;;;;;9.63;4.47;;;5.40;99.90;;;;;;5098206;28;20047;-80
2023/05/04 00:57:43;;;;;;;8.57;4.65;;;5.40;99.90;;;;;;5097471;28;20047;-80
2023/05/04 01:00:12;;;;;;;8.32;4.70;;;5.40;99.90;;;;;;5097696;28;20040;-80
2023/05/04 01:02:39;;;;;;;11.43;4.45;;;5.40;99.90;;;;;;5114200;28;20519;-80
2023/05/04 01:05:07;;;;;;;10.13;4.30;;;5.40;99.90;;;;;;5130988;28;20051;-81
2023/05/04 01:08:05;;;;;;;9.90;4.57;;;5.30;99.90;;;;;;5114036;28;20120;-81
2023/05/04 01:10:48;;;;;;;9.25;4.47;;;5.30;99.90;;;;;;5139089;27;20039;-81
2023/05/04 01:13:16;;;;;;;10.30;4.70;;;5.30;99.90;;;;;;5151733;27;20039;-81
2023/05/04 01:15:43;;;;;;;8.90;4.05;;;5.30;99.90;;;;;;5151476;27;20881;-81
2023/05/04 01:18:10;;;;;;;8.27;4.32;;;5.30;99.90;;;;;;5133934;27;20039;-80
2023/05/04 01:20:37;;;;;;;8.10;4.40;;;5.30;99.90;;;;;;5112105;28;20035;-81
2023/05/04 01:23:04;;;;;;;9.88;4.63;;;5.20;99.90;;;;;;5113574;28;20093;-81
2023/05/04 01:25:43;;;;;;;8.88;4.20;;;5.20;99.90;;;;;;5113874;28;20047;-81
2023/05/04 01:28:18;;;;;;;10.20;4.63;;;5.20;99.90;;;;;;5130163;28;20054;-81
2023/05/04 01:30:50;;;;;;;10.00;5.20;;;5.10;99.90;;;;;;5130419;28;20055;-81
2023/05/04 01:33:18;;;;;;;9.20;4.43;;;5.10;99.90;;;;;;5130767;28;20487;-81
2023/05/04 01:35:45;;;;;;;8.10;4.53;;;5.10;99.90;;;;;;5130351;28;20407;-81
2023/05/04 01:38:12;;;;;;;9.85;4.57;;;5.20;99.90;;;;;;5113096;28;20043;-81
2023/05/04 01:40:39;;;;;;;10.73;4.53;;;5.30;99.90;;;;;;5113313;28;20392;-81
2023/05/04 01:43:06;;;;;;;9.32;4.57;;;5.00;99.90;;;;;;5112976;28;20035;-81
2023/05/04 01:45:32;;;;;;;7.47;4.20;;;5.30;99.90;;;;;;5113525;28;20042;-81
2023/05/04 01:47:59;;;;;;;9.57;4.47;;;5.10;99.90;;;;;;5129877;28;20112;-81
2023/05/04 01:50:26;;;;;;;9.32;4.47;;;5.10;99.90;;;;;;5129747;28;20031;-81
2023/05/04 01:52:52;;;;;;;10.80;5.07;;;5.00;99.90;;;;;;5142487;27;20444;-81
2023/05/04 01:55:19;;;;;;;8.43;4.45;;;5.00;99.90;;;;;;5117029;27;20039;-81
2023/05/04 01:57:46;;;;;;;10.25;4.60;;;5.30;99.90;;;;;;5116346;27;20077;-81
2023/05/04 02:00:14;;;;;;;9.55;4.75;;;5.00;99.90;;;;;;5116209;27;20039;-81
2023/05/04 02:02:42;;;;;;;10.15;5.28;;;4.90;99.90;;;;;;5129675;28;20042;-81
2023/05/04 02:05:08;;;;;;;8.50;4.88;;;4.90;99.90;;;;;;5113001;28;20042;-81
2023/05/04 02:07:35;;;;;;;11.32;4.95;;;4.90;99.90;;;;;;5096536;28;20043;-81
2023/05/04 02:10:02;;;;;;;9.00;4.65;;;5.10;99.90;;;;;;5096401;28;20035;-81
2023/05/04 02:12:29;;;;;;;11.95;5.47;;;4.80;99.90;;;;;;5129774;28;20526;-81
2023/05/04 02:14:55;;;;;;;10.32;5.53;;;4.80;99.90;;;;;;5116216;27;20113;-80
2023/05/04 02:17:22;;;;;;;11.32;4.88;;;4.90;99.90;;;;;;5150528;27;20046;-81
2023/05/04 02:19:49;;;;;;;12.80;5.07;;;4.90;99.90;;;;;;5133562;27;20384;-81
2023/05/04 02:22:16;;;;;;;8.52;4.93;;;4.90;99.90;;;;;;5133463;28;20043;-81
2023/05/04 02:24:43;;;;;;;16.60;5.32;;;4.90;99.90;;;;;;5150416;27;20039;-81
2023/05/04 02:27:10;;;;;;;9.63;5.10;;;4.90;99.90;;;;;;5133286;28;20043;-81
2023/05/04 02:29:37;;;;;;;14.25;5.72;;;4.90;99.90;;;;;;5116798;28;20068;-81
2023/05/04 02:32:04;;;;;;;11.93;5.13;;;5.10;99.90;;;;;;5149882;28;20031;-81
2023/05/04 02:34:30;;;;;;;11.27;5.65;;;4.90;99.90;;;;;;5150409;28;20046;-81
2023/05/04 02:36:57;;;;;;;10.25;5.82;;;4.90;99.90;;;;;;5133341;28;20039;-81
2023/05/04 02:39:24;;;;;;;12.68;5.30;;;4.90;99.90;;;;;;5116402;28;20050;-81
2023/05/04 02:41:50;;;;;;;11.20;5.60;;;4.90;99.90;;;;;;5116247;28;20506;-81
2023/05/04 02:44:17;;;;;;;11.95;5.65;;;4.90;99.90;;;;;;5132964;28;20068;-81
2023/05/04 02:46:44;;;;;;;11.40;5.68;;;4.90;99.90;;;;;;5116361;28;20051;-81
2023/05/04 02:49:10;;;;;;;12.43;5.53;;;4.90;99.90;;;;;;5116059;28;20035;-81
2023/05/04 02:51:37;;;;;;;9.93;5.25;;;4.90;99.90;;;;;;5116351;28;20078;-81
2023/05/04 02:54:05;;;;;;;11.10;5.40;;;4.90;99.90;;;;;;5115938;28;20035;-81
2023/05/04 02:56:32;;;;;;;11.25;5.40;;;4.90;99.90;;;;;;5133295;28;20035;-81
2023/05/04 02:58:58;;;;;;;11.38;5.63;;;4.90;99.90;;;;;;5133169;28;20063;-81
2023/05/04 03:01:25;;;;;;;13.45;5.72;;;4.90;99.90;;;;;;5133274;28;20043;-81
2023/05/04 03:03:52;;;;;;;10.45;5.22;;;5.00;99.90;;;;;;5150330;28;20039;-81
2023/05/04 03:06:18;;;;;;;9.32;5.43;;;5.00;99.90;;;;;;5115723;28;20058;-81
2023/05/04 03:08:45;;;;;;;11.02;5.05;;;5.10;99.90;;;;;;5133069;27;20507;-81
2023/05/04 03:11:12;;;;;;;10.75;5.85;;;5.00;99.90;;;;;;5120083;27;20031;-81
2023/05/04 03:13:39;;;;;;;9.95;5.43;;;5.00;99.90;;;;;;5120057;27;20031;-81
2023/05/04 03:16:05;;;;;;;12.65;5.35;;;5.50;99.90;;;;;;5119435;27;20501;-81
2023/05/04 03:18:32;;;;;;;11.73;6.07;;;5.00;99.90;;;;;;5119702;27;20534;-80
2023/05/04 03:20:59;;;;;;;12.20;5.78;;;5.00;99.90;;;;;;5136547;27;20050;-81
2023/05/04 03:23:26;;;;;;;10.80;5.28;;;5.00;99.90;;;;;;5136475;27;20041;-81
2023/05/04 03:25:53;;;;;;;10.40;5.28;;;5.10;99.90;;;;;;5115325;28;20039;-81
2023/05/04 03:28:19;;;;;;;10.00;5.25;;;4.90;99.90;;;;;;5115450;28;20054;-81
2023/05/04 03:30:46;;;;;;;10.18;5.32;;;4.90;99.90;;;;;;5116113;28;20475;-80
2023/05/04 03:33:13;;;;;;;10.77;5.70;;;4.90;99.90;;;;;;5115492;28;20122;-81
2023/05/04 03:35:40;;;;;;;14.35;5.80;;;4.90;99.90;;;;;;5115859;28;20039;-81
2023/05/04 03:38:07;;;;;;;12.00;5.65;;;4.90;99.90;;;;;;5115405;28;20927;-80
2023/05/04 03:40:33;;;;;;;9.25;5.38;;;4.90;99.90;;;;;;5132185;28;20106;-80
2023/05/04 03:43:00;;;;;;;10.32;5.50;;;5.00;99.90;;;;;;5116024;28;20419;-81
2023/05/04 03:45:27;;;;;;;11.45;5.78;;;5.00;99.90;;;;;;5132019;28;20134;-81
2023/05/04 03:47:54;;;;;;;10.68;5.22;;;5.00;99.90;;;;;;5115683;28;20484;-81
2023/05/04 03:50:21;;;;;;;12.20;5.63;;;5.00;99.90;;;;;;5132102;28;20096;-81
2023/05/04 03:52:49;;;;;;;11.95;5.72;;;5.00;99.90;;;;;;5166261;27;20036;-81
2023/05/04 03:55:15;;;;;;;10.75;5.35;;;5.00;99.90;;;;;;5149008;28;20130;-80
2023/05/04 03:57:43;;;;;;;14.13;6.30;;;5.10;99.90;;;;;;5098471;28;20118;-81
2023/05/04 04:00:10;;;;;;;14.50;6.22;;;5.00;99.90;;;;;;5115584;28;20062;-81
2023/05/04 04:02:37;;;;;;;8.95;5.03;;;5.00;99.90;;;;;;5098472;28;20919;-81
2023/05/04 04:05:05;;;;;;;10.20;5.43;;;5.00;99.90;;;;;;5142511;27;20103;-81
2023/05/04 04:07:32;;;;;;;11.63;5.90;;;5.00;99.90;;;;;;5135540;27;20064;-81
2023/05/04 04:09:58;;;;;;;13.32;5.60;;;5.20;99.90;;;;;;5135670;27;20039;-81
2023/05/04 04:12:25;;;;;;;12.77;5.15;;;5.00;99.90;;;;;;5118443;27;20046;-81
2023/05/04 04:14:52;;;;;;;15.18;5.80;;;5.20;99.90;;;;;;5135494;27;20526;-81
2023/05/04 04:17:18;;;;;;;11.63;5.28;;;5.10;99.90;;;;;;5118570;27;20421;-81
2023/05/04 04:19:45;;;;;;;9.52;4.82;;;5.10;99.90;;;;;;5152080;27;20069;-81
2023/05/04 04:22:12;;;;;;;13.77;5.68;;;5.10;99.90;;;;;;5135446;27;20843;-81
2023/05/04 04:24:38;;;;;;;11.23;5.18;;;5.10;99.90;;;;;;5117951;27;20031;-81
2023/05/04 04:27:05;;;;;;;9.50;5.22;;;5.20;99.90;;;;;;5097972;28;20063;-81
2023/05/04 04:29:34;;;;;;;14.50;6.13;;;5.30;99.90;;;;;;5114534;28;20055;-81
2023/05/04 04:32:02;;;;;;;11.00;5.25;;;5.20;99.90;;;;;;5114981;28;20503;-81
2023/05/04 04:34:29;;;;;;;14.60;5.38;;;5.20;99.90;;;;;;5114812;28;20130;-81
2023/05/04 04:36:56;;;;;;;12.48;5.57;;;5.20;99.90;;;;;;5127783;27;20415;-81
2023/05/04 04:39:23;;;;;;;10.80;5.32;;;5.20;99.90;;;;;;5135141;27;20042;-81
2023/05/04 04:41:49;;;;;;;13.40;5.55;;;5.20;99.90;;;;;;5118455;27;20039;-81
2023/05/04 04:44:16;;;;;;;13.18;5.65;;;5.60;99.90;;;;;;5134685;27;20043;-80
2023/05/04 04:46:45;;;;;;;10.20;5.22;;;5.30;99.90;;;;;;5131080;28;20043;-81
2023/05/04 04:49:12;;;;;;;10.55;4.90;;;5.30;99.90;;;;;;5118765;27;20067;-81
2023/05/04 04:51:40;;;;;;;11.70;5.30;;;5.40;99.90;;;;;;5135200;27;20478;-81
2023/05/04 04:54:07;;;;;;;16.05;5.25;;;5.40;99.90;;;;;;5135220;27;20035;-80
2023/05/04 04:56:34;;;;;;;10.90;5.45;;;5.40;99.90;;;;;;5134070;27;20065;-81
2023/05/04 04:59:01;;;;;;;10.00;4.80;;;5.40;99.90;;;;;;5118142;27;20054;-81
2023/05/04 05:01:28;;;;;;;10.25;5.38;;;5.40;99.90;;;;;;5134714;27;20062;-81
2023/05/04 05:03:55;;;;;;;10.40;4.47;;;5.40;99.90;;;;;;5118038;27;20035;-81
2023/05/04 05:06:22;;;;;;;12.68;5.05;;;5.40;99.90;;;;;;5134429;27;20042;-81
2023/05/04 05:08:49;;;;;;;13.57;5.30;;;5.60;99.90;;;;;;5134449;27;20043;-81
2023/05/04 05:11:16;;;;;;;13.05;4.82;;;5.50;99.90;;;;;;5122590;28;20027;-81
2023/05/04 05:13:43;;;;;;;11.43;4.93;;;5.50;99.90;;;;;;5129877;28;20036;-81
2023/05/04 05:16:09;;;;;;;13.05;5.55;;;5.60;99.90;;;;;;5131047;28;20039;-81
2023/05/04 05:18:36;;;;;;;13.57;5.70;;;5.60;99.90;;;;;;5135247;28;20082;-81
2023/05/04 05:21:04;;;;;;;12.02;5.45;;;5.60;99.90;;;;;;5097358;28;20044;-81
2023/05/04 05:23:30;;;;;;;10.43;5.53;;;5.70;99.90;;;;;;5097327;28;20122;-81
2023/05/04 05:25:57;;;;;;;16.45;5.50;;;5.80;99.90;;;;;;5097071;28;20527;-81
2023/05/04 05:28:24;;;;;;;10.32;5.30;;;5.80;99.90;;;;;;5104138;28;20051;-81
2023/05/04 05:30:50;;;;;;;11.98;5.10;;;5.80;99.90;;;;;;5113916;28;20088;-81
2023/05/04 05:33:18;;;;;;;12.05;4.75;;;5.90;99.90;;;;;;5113170;28;20102;-81
2023/05/04 05:35:44;;;;;;;11.57;4.40;;;5.90;99.90;;;;;;5147222;28;20032;-81
2023/05/04 05:38:11;;;;;;;13.30;4.72;;;5.90;99.90;;;;;;5096938;28;20043;-81
2023/05/04 05:40:38;;;;;;;9.88;5.18;;;6.00;99.90;;;;;;5113567;28;20085;-82
2023/05/04 05:43:05;;;;;;;11.05;4.93;;;6.00;99.90;;;;;;5113760;28;20039;-82
2023/05/04 05:45:31;;;;;;;12.48;5.68;;;6.10;99.90;;;;;;5096644;28;20396;-82
2023/05/04 05:47:58;;;;;;;10.43;4.55;;;6.20;99.90;;;;;;5113630;28;20488;-82
2023/05/04 05:50:25;;;;;;;12.90;4.90;;;6.20;99.90;;;;;;5112084;28;20807;-81
2023/05/04 05:52:51;;;;;;;11.30;5.32;;;6.50;99.90;;;;;;5130111;28;20491;-81
2023/05/04 05:55:18;;;;;;;12.13;4.82;;;6.30;99.90;;;;;;5113144;28;20480;-82
2023/05/04 05:57:45;;;;;;;10.68;5.13;;;6.40;99.90;;;;;;5130056;28;20498;-81
2023/05/04 06:00:12;;;;;;;11.32;5.38;;;6.40;99.90;;;;;;5113427;28;20104;-82
2023/05/04 06:02:39;;;;;;;12.38;5.20;;;6.50;99.90;;;;;;5125116;28;20043;-81
2023/05/04 06:05:06;;;;;;;13.52;5.60;;;6.60;99.90;;;;;;5113239;28;20396;-82
2023/05/04 06:07:33;;;;;;;12.27;5.20;;;6.60;99.90;;;;;;5112783;28;20078;-81
2023/05/04 06:10:00;;;;;;;11.82;5.30;;;6.60;99.90;;;;;;5112940;28;20032;-82
2023/05/04 06:12:26;;;;;;;10.20;4.78;;;6.70;99.90;;;;;;5113114;28;20061;-81
2023/05/04 06:14:53;;;;;;;14.15;5.18;;;6.70;99.90;;;;;;5113053;28;20031;-82
2023/05/04 06:17:20;;;;;;;10.90;4.97;;;6.80;99.90;;;;;;5121055;28;20408;-82
2023/05/04 06:19:49;;;;;;;13.20;4.80;;;6.80;99.90;;;;;;5113788;28;20181;-82
2023/05/04 06:22:16;;;;;;;10.27;4.43;;;6.90;99.90;;;;;;5130668;28;20499;-82
2023/05/04 06:24:43;;;;;;;13.18;5.15;;;6.90;99.90;;;;;;5112833;28;20134;-82
2023/05/04 06:27:10;;;;;;;11.80;4.78;;;7.00;99.90;;;;;;5113033;28;20066;-82
2023/05/04 06:29:39;;;;;;;12.15;5.85;;;7.10;99.90;;;;;;5113116;28;20089;-81
2023/05/04 06:32:06;;;;;;;12.30;5.03;;;7.20;99.90;;;;;;5113636;28;20043;-82
2023/05/04 06:34:33;;;;;;;14.95;5.28;;;7.30;99.90;;;;;;5112703;28;20183;-81
2023/05/04 06:36:59;;;;;;;11.45;5.00;;;7.30;99.90;;;;;;5096215;28;20043;-82
2023/05/04 06:39:26;;;;;;;10.32;4.60;;;7.40;99.90;;;;;;5146592;28;20085;-81
2023/05/04 06:41:54;;;;;;;11.25;4.90;;;7.50;99.90;;;;;;5146194;28;20043;-82
2023/05/04 06:44:21;;;;;;;11.20;4.88;;;7.60;99.90;;;;;;5132534;28;20130;-82
2023/05/04 06:46:48;;;;;;;10.23;5.13;;;7.60;99.90;;;;;;5116611;28;20092;-83
2023/05/04 06:49:16;;;;;;;10.00;4.82;;;7.80;99.90;;;;;;5100185;28;20032;-82
2023/05/04 06:51:43;;;;;;;8.38;4.60;;;7.90;99.90;;;;;;5100326;28;20495;-83
2023/05/04 06:54:10;;;;;;;9.02;4.88;;;8.10;99.90;;;;;;5112253;28;20046;-82
2023/05/04 06:56:38;;;;;;;10.25;4.72;;;8.20;99.90;;;;;;5133659;28;20054;-82
2023/05/04 06:59:05;;;;;;;9.43;4.40;;;8.30;99.90;;;;;;5116841;28;20039;-83
2023/05/04 07:01:32;;;;;;;11.68;5.43;;;8.40;99.90;;;;;;5116804;28;20059;-83
2023/05/04 07:03:59;;;;;;;14.38;5.70;;;8.50;99.90;;;;;;5136095;27;20081;-84
2023/05/04 07:06:27;;;;;;;12.10;4.80;;;8.50;99.90;;;;;;5137510;27;20042;-83
2023/05/04 07:08:54;;;;;;;9.82;4.78;;;8.70;99.90;;;;;;5120053;27;20717;-83
2023/05/04 07:11:20;;;;;;;11.05;4.65;;;8.80;99.90;;;;;;5117372;27;20039;-83
2023/05/04 07:13:47;;;;;;;12.98;5.18;;;8.90;99.90;;;;;;5099731;28;20032;-82
2023/05/04 07:16:14;;;;;;;8.85;4.68;;;9.00;99.90;;;;;;5133435;28;20122;-83
2023/05/04 07:18:41;;;;;;;10.63;4.95;;;9.10;99.90;;;;;;5130358;27;20043;-84
2023/05/04 07:21:11;;;;;;;11.30;5.15;;;9.10;99.90;;;;;;5120186;27;20035;-83
2023/05/04 07:23:38;;;;;;;9.13;4.57;;;9.30;99.90;;;;;;5132860;28;20039;-83
2023/05/04 07:26:07;;;;;;;11.98;4.50;;;9.30;99.90;;;;;;5132767;28;20058;-81
2023/05/04 07:28:33;;;;;;;9.48;4.40;;;9.40;99.90;;;;;;5149923;28;20877;-82
2023/05/04 07:31:01;;;;;;;12.90;5.43;;;10.00;99.90;;;;;;5132940;28;20067;-83
2023/05/04 07:33:27;;;;;;;14.40;4.93;;;9.60;99.90;;;;;;5120711;28;20043;-82
2023/05/04 07:35:58;;;;;;;10.63;4.63;;;9.70;99.90;;;;;;5115290;28;20043;-81
2023/05/04 07:38:26;;;;;;;9.93;4.75;;;9.80;99.90;;;;;;5132361;28;20051;-83
2023/05/04 07:40:53;;;;;;;14.63;5.35;;;9.90;99.90;;;;;;5115312;28;20042;-82
2023/05/04 07:43:20;;;;;;;11.43;4.72;;;10.00;99.90;;;;;;5132372;28;20054;-81
2023/05/04 07:45:47;;;;;;;13.27;4.95;;;10.10;99.90;;;;;;5098520;28;20126;-82
2023/05/04 07:48:16;;;;;;;9.98;5.00;;;10.20;99.90;;;;;;5130381;27;20722;-84
2023/05/04 07:50:43;;;;;;;10.13;4.53;;;10.30;99.90;;;;;;5153196;27;20039;-83
2023/05/04 07:53:09;;;;;;;11.40;4.32;;;10.40;99.90;;;;;;5135942;27;20560;-83
2023/05/04 07:55:36;;;;;;;10.48;4.13;;;10.40;99.90;;;;;;5131172;27;20032;-81
2023/05/04 07:58:03;;;;;;;10.27;4.45;;;10.50;99.90;;;;;;5110189;28;20130;-85
2023/05/04 08:00:30;;;;;;;10.02;4.68;;;10.50;99.90;;;;;;5132440;28;20492;-84
2023/05/04 08:02:57;;;;;;;9.75;4.72;;;10.60;99.90;;;;;;5114559;28;20519;-84
2023/05/04 08:05:23;;;;;;;8.02;4.57;;;10.70;99.90;;;;;;5115622;28;20047;-84
2023/05/04 08:07:50;;;;;;;9.35;4.13;;;10.70;99.90;;;;;;5116657;28;20042;-84
2023/05/04 08:10:17;;;;;;;11.40;4.35;;;10.70;99.90;;;;;;5115196;28;20040;-84
2023/05/04 08:12:43;;;;;;;13.27;4.75;;;10.80;99.90;;;;;;5098542;28;20043;-84
2023/05/04 08:15:11;;;;;;;9.82;4.35;;;10.90;99.90;;;;;;5115270;28;20045;-84
2023/05/04 08:17:39;;;;;;;8.45;4.22;;;11.00;99.90;;;;;;5117934;27;20498;-83
2023/05/04 08:20:07;;;;;;;11.95;4.35;;;11.20;99.90;;;;;;5118685;27;20494;-84
2023/05/04 08:22:34;;;;;;;12.02;4.72;;;11.30;99.90;;;;;;5118650;27;20074;-84
2023/05/04 08:25:00;;;;;;;11.05;4.78;;;11.40;99.90;;;;;;5151941;27;20081;-84
2023/05/04 08:27:27;;;;;;;15.38;4.80;;;11.40;99.90;;;;;;5118075;27;20047;-84
2023/05/04 08:29:56;;;;;;;11.05;5.25;;;11.50;99.90;;;;;;5104105;28;20491;-84
2023/05/04 08:32:23;;;;;;;9.40;4.55;;;11.60;99.90;;;;;;5114650;28;20046;-85
2023/05/04 08:34:50;;;;;;;10.55;4.70;;;11.80;99.90;;;;;;5115111;28;20122;-85
2023/05/04 08:37:17;;;;;;;9.95;4.68;;;11.90;99.90;;;;;;5098572;28;20111;-85
2023/05/04 08:39:44;;;;;;;10.60;4.57;;;12.10;99.90;;;;;;5114104;28;20112;-84
2023/05/04 08:42:10;;;;;;;13.13;4.45;;;12.30;99.90;;;;;;5114228;28;20047;-85
2023/05/04 08:44:37;;;;;;;10.50;5.05;;;12.40;99.90;;;;;;5131387;28;20039;-83
2023/05/04 08:47:04;;;;;;;10.15;4.53;;;12.50;99.90;;;;;;5117567;27;20070;-83
2023/05/04 08:49:31;;;;;;;9.35;4.47;;;12.70;99.90;;;;;;5151857;27;20513;-83
2023/05/04 08:51:59;;;;;;;11.07;4.85;;;12.80;99.90;;;;;;5118002;27;20092;-83
2023/05/04 08:54:26;;;;;;;9.43;4.22;;;12.90;99.90;;;;;;5134733;27;20035;-83
2023/05/04 08:56:55;;;;;;;12.15;3.90;;;13.10;99.90;;;;;;5134741;27;20070;-82
2023/05/04 08:59:23;;;;;;;10.90;4.28;;;13.20;99.90;;;;;;5134705;27;20031;-83
2023/05/04 09:01:57;;;;;;;8.38;4.13;;;13.30;99.90;;;;;;5130016;28;20403;-83
2023/05/04 09:04:25;;;;;;;10.02;4.07;;;13.40;99.90;;;;;;5130591;28;20040;-84
2023/05/04 09:06:52;;;;;;;16.27;3.95;;;13.40;99.90;;;;;;5112690;28;20436;-83
2023/05/04 09:09:27;;;;;;;10.70;4.47;;;13.50;99.90;;;;;;5113930;28;20036;-83
2023/05/04 09:11:53;;;;;;;14.57;4.18;;;13.60;99.90;;;;;;5146807;27;20147;-82
2023/05/04 09:14:21;;;;;;;8.75;4.20;;;13.70;99.90;;;;;;5151202;27;20130;-83
2023/05/04 09:16:48;;;;;;;8.55;3.70;;;13.80;99.90;;;;;;5150972;27;20037;-82
2023/05/04 09:19:19;;;;;;;8.70;4.05;;;13.90;99.90;;;;;;5117077;27;20034;-84
2023/05/04 09:21:48;;;;;;;8.25;3.80;;;13.90;99.90;;;;;;5126164;28;20042;-83
2023/05/04 09:24:27;;;;;;;9.90;4.10;;;14.00;99.90;;;;;;5109195;28;20048;-82
2023/05/04 09:26:54;;;;;;;7.47;3.78;;;14.10;99.90;;;;;;5113203;28;20082;-81
2023/05/04 09:29:24;;;;;;;7.97;3.53;;;14.20;99.90;;;;;;5113847;28;20047;-82
2023/05/04 09:31:51;;;;;;;10.32;4.20;;;14.30;99.90;;;;;;5129910;28;20036;-82
2023/05/04 09:34:20;;;;;;;7.50;3.83;;;14.50;99.90;;;;;;5097770;28;20036;-82
2023/05/04 09:37:00;;;;;;;8.02;4.00;;;14.60;99.90;;;;;;5130119;28;20600;-82
2023/05/04 09:39:27;;;;;;;6.35;3.45;;;14.80;99.90;;;;;;5129932;28;20032;-83
2023/05/04 09:41:55;;;;;;;8.40;3.72;;;15.00;99.90;;;;;;5133936;28;20495;-83
2023/05/04 09:44:27;;;;;;;10.27;3.80;;;15.10;99.90;;;;;;5130427;28;20035;-82
2023/05/04 09:46:55;;;;;;;8.30;3.95;;;15.20;99.90;;;;;;5130073;28;20036;-82
2023/05/04 09:49:30;;;;;;;17.80;4.00;;;15.40;99.90;;;;;;5130167;28;20039;-82
2023/05/04 09:52:01;;;;;;;8.30;3.47;;;15.50;99.90;;;;;;5130217;28;20039;-81
2023/05/04 09:54:33;;;;;;;6.97;3.50;;;15.60;99.90;;;;;;5108268;27;20068;-81
2023/05/04 09:57:22;;;;;;;9.20;3.83;;;15.70;99.90;;;;;;5132930;28;20511;-82
2023/05/04 09:59:50;;;;;;;8.98;3.58;;;15.80;99.90;;;;;;5142807;27;20111;-82
2023/05/04 10:02:17;;;;;;;6.68;3.67;;;16.00;99.90;;;;;;5132889;27;20039;-82
2023/05/04 10:04:44;;;;;;;7.80;3.53;;;16.00;99.90;;;;;;5151147;28;20035;-84
2023/05/04 10:07:11;;;;;;;9.30;3.40;;;16.10;99.90;;;;;;5132890;27;20118;-80
2023/05/04 10:09:39;;;;;;;9.57;3.80;;;16.20;99.90;;;;;;5112551;28;20032;-81
2023/05/04 10:12:06;;;;;;;8.02;3.65;;;16.30;99.90;;;;;;5096305;28;20035;-81
2023/05/04 10:14:34;;;;;;;9.80;4.20;;;16.40;99.90;;;;;;5113294;28;20097;-82
2023/05/04 10:17:34;;;;;;;6.68;3.50;;;16.40;99.90;;;;;;5112419;28;20043;-82
2023/05/04 10:20:22;;;;;;;8.75;3.70;;;16.50;99.90;;;;;;5153612;27;20051;-82
2023/05/04 10:22:54;;;;;;;10.63;4.10;;;16.60;99.90;;;;;;5149410;28;20039;-79
2023/05/04 10:26:02;;;;;;;8.48;3.53;;;16.60;99.90;;;;;;5133411;28;20054;-79
2023/05/04 10:28:38;;;;;;;9.65;3.53;;;16.60;99.90;;;;;;5125571;28;20048;-82
2023/05/04 10:31:06;;;;;;;7.78;3.53;;;16.70;99.90;;;;;;5112581;28;20051;-81
2023/05/04 10:33:42;;;;;;;8.10;3.58;;;16.70;99.90;;;;;;5112554;28;20092;-81
2023/05/04 10:36:10;;;;;;;6.07;3.33;;;16.80;99.90;;;;;;5129274;28;20050;-82
2023/05/04 10:38:39;;;;;;;9.32;3.33;;;16.80;99.90;;;;;;5146137;28;20035;-81
2023/05/04 10:41:16;;;;;;;12.27;3.25;;;16.80;99.90;;;;;;5136917;28;20047;-83
2023/05/04 10:43:47;;;;;;;6.15;3.05;;;16.60;99.90;;;;;;5150179;28;20035;-82
2023/05/04 10:46:22;;;;;;;8.27;3.72;;;16.60;99.90;;;;;;5132530;28;20506;-80
2023/05/04 10:48:49;;;;;;;6.45;3.50;;;16.50;99.90;;;;;;5132695;28;20050;-80
2023/05/04 10:51:24;;;;;;;8.48;3.40;;;16.60;99.90;;;;;;5149643;28;20043;-82
2023/05/04 10:53:51;;;;;;;6.53;3.25;;;16.70;99.90;;;;;;5139564;28;20032;-81
2023/05/04 10:56:23;;;;;;;8.57;3.55;;;16.80;99.90;;;;;;5112292;28;20495;-83
2023/05/04 10:58:50;;;;;;;7.93;3.58;;;16.90;99.90;;;;;;5129482;28;20050;-83
2023/05/04 11:01:18;;;;;;;10.57;4.00;;;17.00;99.90;;;;;;5133314;28;20122;-81
2023/05/04 11:03:45;;;;;;;7.45;3.88;;;17.00;99.90;;;;;;5132018;28;20040;-81
2023/05/04 11:06:21;;;;;;;10.85;3.72;;;16.90;99.90;;;;;;5132786;28;20031;-81
2023/05/04 11:08:58;;;;;;;7.85;3.75;;;17.00;99.90;;;;;;5149639;28;20074;-82
2023/05/04 11:11:25;;;;;;;8.70;3.65;;;17.00;99.90;;;;;;5149594;28;20039;-81
2023/05/04 11:13:53;;;;;;;6.35;3.58;;;17.20;99.90;;;;;;5098867;28;20463;-80
2023/05/04 11:16:24;;;;;;;7.47;3.45;;;17.30;99.90;;;;;;5112388;28;20404;-81
2023/05/04 11:18:52;;;;;;;12.45;3.83;;;17.30;99.90;;;;;;5112684;28;20036;-84
2023/05/04 11:21:28;;;;;;;9.27;4.32;;;17.40;99.90;;;;;;5112482;28;20040;-84
2023/05/04 11:23:59;;;;;;;9.98;4.15;;;17.30;99.90;;;;;;5114259;28;20050;-84
2023/05/04 11:26:27;;;;;;;11.93;3.63;;;17.40;99.90;;;;;;5129037;28;20055;-84
2023/05/04 11:28:54;;;;;;;8.30;3.47;;;17.50;99.90;;;;;;5096186;28;20122;-82
2023/05/04 11:31:21;;;;;;;7.60;4.10;;;17.50;99.90;;;;;;5114792;28;20230;-82
2023/05/04 11:33:53;;;;;;;9.65;3.85;;;17.50;99.90;;;;;;5124560;28;20039;-81
2023/05/04 11:36:21;;;;;;;10.55;3.78;;;17.50;99.90;;;;;;5149000;28;20044;-80
2023/05/04 11:38:48;;;;;;;6.82;3.55;;;17.50;99.90;;;;;;5132567;27;20036;-80
2023/05/04 11:41:15;;;;;;;8.40;3.80;;;17.60;99.90;;;;;;5148948;28;20143;-79
2023/05/04 11:43:44;;;;;;;8.63;3.80;;;17.70;99.90;;;;;;5132823;28;20114;-81
2023/05/04 11:46:11;;;;;;;14.43;3.53;;;17.70;99.90;;;;;;5114349;28;20088;-81
2023/05/04 11:48:38;;;;;;;7.03;3.55;;;17.80;99.90;;;;;;5131446;28;20035;-80
2023/05/04 11:51:05;;;;;;;7.13;3.55;;;17.80;99.90;;;;;;5132055;28;20054;-80
2023/05/04 11:53:39;;;;;;;6.20;3.50;;;17.80;99.90;;;;;;5101098;27;20396;-81
2023/05/04 11:56:09;;;;;;;6.72;3.40;;;17.80;99.90;;;;;;5132108;28;20039;-82
2023/05/04 11:58:36;;;;;;;13.77;3.47;;;17.80;99.90;;;;;;5132797;28;20043;-79
2023/05/04 12:01:03;;;;;;;8.43;3.42;;;17.80;99.90;;;;;;5148781;28;20040;-80
2023/05/04 12:03:33;;;;;;;8.93;3.70;;;17.80;99.90;;;;;;5138062;28;20036;-80
2023/05/04 12:06:01;;;;;;;7.72;3.28;;;17.80;99.90;;;;;;5143762;27;20514;-80
2023/05/04 12:08:33;;;;;;;10.10;3.30;;;17.80;99.90;;;;;;5151961;27;20088;-80
2023/05/04 12:11:24;;;;;;;9.60;3.30;;;17.90;99.40;;;;;;5135566;27;20042;-80
2023/05/04 12:14:12;;;;;;;7.82;3.75;;;18.00;98.90;;;;;;5152699;27;20046;-79
2023/05/04 12:16:41;;;;;;;9.77;2.83;;;18.00;97.90;;;;;;5151944;27;20435;-82
2023/05/04 12:19:09;;;;;;;10.63;3.15;;;18.10;99.20;;;;;;5136196;27;20100;-82
2023/05/04 12:21:47;;;;;;;9.38;3.20;;;18.20;99.40;;;;;;5151607;27;20039;-80
2023/05/04 12:24:13;;;;;;;8.95;3.28;;;18.30;99.20;;;;;;5136911;27;20151;-81
2023/05/04 12:26:41;;;;;;;5.35;2.92;;;18.40;99.30;;;;;;5152039;27;20141;-81
2023/05/04 12:29:08;;;;;;;9.82;3.40;;;18.50;99.00;;;;;;5149968;27;20043;-82
2023/05/04 12:31:34;;;;;;;10.45;3.25;;;18.60;98.80;;;;;;5151739;27;20080;-83
2023/05/04 12:34:01;;;;;;;7.85;3.22;;;18.60;98.70;;;;;;5167537;27;20447;-80
2023/05/04 12:36:28;;;;;;;10.93;3.40;;;18.70;98.50;;;;;;5141063;28;20506;-81
2023/05/04 12:38:54;;;;;;;5.32;2.95;;;18.70;98.10;;;;;;5114838;28;20043;-83
2023/05/04 12:41:21;;;;;;;7.43;3.33;;;18.70;97.00;;;;;;5129866;28;20058;-80
2023/05/04 12:43:48;;;;;;;7.55;3.15;;;18.60;97.40;;;;;;5148245;28;20038;-81
2023/05/04 12:46:20;;;;;;;4.68;3.10;;;18.60;97.60;;;;;;5118142;28;20042;-81
2023/05/04 12:48:46;;;;;;;10.10;3.10;;;18.60;97.00;;;;;;5114684;28;20039;-83
2023/05/04 12:51:13;;;;;;;9.13;3.20;;;18.50;97.00;;;;;;5114438;28;20050;-80
2023/05/04 12:53:42;;;;;;;6.63;3.00;;;18.50;97.20;;;;;;5113675;28;20040;-81